sensor_id;sensor_type;location;lat;lon;timestamp;temperature;humidity
72650;SHT31;61467;50.674;4.618;2022-08-19T00:00:57;21.46;70.18
72650;SHT31;61467;50.674;4.618;2022-08-19T00:03:24;21.50;70.17
72650;SHT31;61467;50.674;4.618;2022-08-19T00:05:50;21.57;69.97
72650;SHT31;61467;50.674;4.618;2022-08-19T00:08:17;21.34;70.29
72650;SHT31;61467;50.674;4.618;2022-08-19T00:10:45;21.41;70.11
72650;SHT31;61467;50.674;4.618;2022-08-19T00:13:13;21.22;70.85
72650;SHT31;61467;50.674;4.618;2022-08-19T00:15:40;21.22;70.79
72650;SHT31;61467;50.674;4.618;2022-08-19T00:18:10;21.22;70.62
72650;SHT31;61467;50.674;4.618;2022-08-19T00:20:36;21.10;70.90
72650;SHT31;61467;50.674;4.618;2022-08-19T00:23:05;21.09;70.94
72650;SHT31;61467;50.674;4.618;2022-08-19T00:25:32;21.09;70.73
72650;SHT31;61467;50.674;4.618;2022-08-19T00:28:00;21.03;71.07
72650;SHT31;61467;50.674;4.618;2022-08-19T00:30:27;21.03;71.00
72650;SHT31;61467;50.674;4.618;2022-08-19T00:32:54;20.96;71.13
72650;SHT31;61467;50.674;4.618;2022-08-19T00:35:21;21.06;71.06
72650;SHT31;61467;50.674;4.618;2022-08-19T00:37:49;20.92;71.93
72650;SHT31;61467;50.674;4.618;2022-08-19T00:40:17;20.73;72.42
72650;SHT31;61467;50.674;4.618;2022-08-19T00:42:44;20.62;72.86
72650;SHT31;61467;50.674;4.618;2022-08-19T00:45:16;20.61;72.92
72650;SHT31;61467;50.674;4.618;2022-08-19T00:47:43;20.79;72.15
72650;SHT31;61467;50.674;4.618;2022-08-19T00:50:12;20.92;71.59
72650;SHT31;61467;50.674;4.618;2022-08-19T00:52:42;20.86;71.60
72650;SHT31;61467;50.674;4.618;2022-08-19T00:55:12;20.78;71.71
72650;SHT31;61467;50.674;4.618;2022-08-19T00:57:43;20.90;71.11
72650;SHT31;61467;50.674;4.618;2022-08-19T01:00:15;20.83;70.85
72650;SHT31;61467;50.674;4.618;2022-08-19T01:02:45;20.83;70.84
72650;SHT31;61467;50.674;4.618;2022-08-19T01:05:15;20.88;70.64
72650;SHT31;61467;50.674;4.618;2022-08-19T01:07:43;20.88;70.58
72650;SHT31;61467;50.674;4.618;2022-08-19T01:10:19;20.71;71.03
72650;SHT31;61467;50.674;4.618;2022-08-19T01:12:49;20.72;71.20
72650;SHT31;61467;50.674;4.618;2022-08-19T01:15:24;20.69;71.41
72650;SHT31;61467;50.674;4.618;2022-08-19T01:17:52;20.79;70.59
72650;SHT31;61467;50.674;4.618;2022-08-19T01:20:22;20.73;70.80
72650;SHT31;61467;50.674;4.618;2022-08-19T01:22:55;20.58;71.19
72650;SHT31;61467;50.674;4.618;2022-08-19T01:25:24;20.67;71.01
72650;SHT31;61467;50.674;4.618;2022-08-19T01:27:52;20.56;71.37
72650;SHT31;61467;50.674;4.618;2022-08-19T01:30:22;20.64;71.10
72650;SHT31;61467;50.674;4.618;2022-08-19T01:32:49;20.52;71.38
72650;SHT31;61467;50.674;4.618;2022-08-19T01:35:16;20.65;71.30
72650;SHT31;61467;50.674;4.618;2022-08-19T01:37:45;20.72;70.78
72650;SHT31;61467;50.674;4.618;2022-08-19T01:40:14;20.73;70.97
72650;SHT31;61467;50.674;4.618;2022-08-19T01:42:41;20.79;70.67
72650;SHT31;61467;50.674;4.618;2022-08-19T01:45:08;20.76;70.62
72650;SHT31;61467;50.674;4.618;2022-08-19T01:47:36;20.76;70.96
72650;SHT31;61467;50.674;4.618;2022-08-19T01:50:05;20.82;70.70
72650;SHT31;61467;50.674;4.618;2022-08-19T01:52:34;20.79;70.74
72650;SHT31;61467;50.674;4.618;2022-08-19T01:55:01;20.79;70.55
72650;SHT31;61467;50.674;4.618;2022-08-19T01:57:29;20.85;70.08
72650;SHT31;61467;50.674;4.618;2022-08-19T01:59:56;20.85;70.27
72650;SHT31;61467;50.674;4.618;2022-08-19T02:02:24;20.78;70.42
72650;SHT31;61467;50.674;4.618;2022-08-19T02:04:50;20.76;70.54
72650;SHT31;61467;50.674;4.618;2022-08-19T02:07:19;20.51;71.57
72650;SHT31;61467;50.674;4.618;2022-08-19T02:09:46;20.49;71.51
72650;SHT31;61467;50.674;4.618;2022-08-19T02:12:14;20.55;71.38
72650;SHT31;61467;50.674;4.618;2022-08-19T02:14:43;20.62;71.37
72650;SHT31;61467;50.674;4.618;2022-08-19T02:17:09;20.52;71.35
72650;SHT31;61467;50.674;4.618;2022-08-19T02:19:36;20.49;71.82
72650;SHT31;61467;50.674;4.618;2022-08-19T02:22:03;20.59;71.35
72650;SHT31;61467;50.674;4.618;2022-08-19T02:24:30;20.59;71.39
72650;SHT31;61467;50.674;4.618;2022-08-19T02:26:57;20.49;71.65
72650;SHT31;61467;50.674;4.618;2022-08-19T02:29:24;20.49;71.58
72650;SHT31;61467;50.674;4.618;2022-08-19T02:31:52;20.49;71.68
72650;SHT31;61467;50.674;4.618;2022-08-19T02:34:18;20.47;71.66
72650;SHT31;61467;50.674;4.618;2022-08-19T02:36:45;20.53;71.30
72650;SHT31;61467;50.674;4.618;2022-08-19T02:39:12;20.51;71.29
72650;SHT31;61467;50.674;4.618;2022-08-19T02:41:37;20.62;70.84
72650;SHT31;61467;50.674;4.618;2022-08-19T02:44:04;20.56;70.97
72650;SHT31;61467;50.674;4.618;2022-08-19T02:46:33;20.48;71.38
72650;SHT31;61467;50.674;4.618;2022-08-19T02:49:03;20.47;71.23
72650;SHT31;61467;50.674;4.618;2022-08-19T02:51:32;20.37;71.27
72650;SHT31;61467;50.674;4.618;2022-08-19T02:53:59;20.42;71.00
72650;SHT31;61467;50.674;4.618;2022-08-19T02:56:35;20.44;71.02
72650;SHT31;61467;50.674;4.618;2022-08-19T02:59:02;20.31;71.13
72650;SHT31;61467;50.674;4.618;2022-08-19T03:01:33;20.24;71.19
72650;SHT31;61467;50.674;4.618;2022-08-19T03:04:03;19.73;72.55
72650;SHT31;61467;50.674;4.618;2022-08-19T03:06:31;19.63;73.04
72650;SHT31;61467;50.674;4.618;2022-08-19T03:08:58;19.72;72.52
72650;SHT31;61467;50.674;4.618;2022-08-19T03:11:27;19.77;72.06
72650;SHT31;61467;50.674;4.618;2022-08-19T03:13:54;19.79;71.82
72650;SHT31;61467;50.674;4.618;2022-08-19T03:16:25;19.76;71.93
72650;SHT31;61467;50.674;4.618;2022-08-19T03:18:53;19.65;72.12
72650;SHT31;61467;50.674;4.618;2022-08-19T03:21:23;19.39;72.84
72650;SHT31;61467;50.674;4.618;2022-08-19T03:23:53;19.62;71.94
72650;SHT31;61467;50.674;4.618;2022-08-19T03:26:20;19.55;72.00
72650;SHT31;61467;50.674;4.618;2022-08-19T03:28:47;19.63;71.73
72650;SHT31;61467;50.674;4.618;2022-08-19T03:31:16;19.66;71.46
72650;SHT31;61467;50.674;4.618;2022-08-19T03:33:44;19.73;71.37
72650;SHT31;61467;50.674;4.618;2022-08-19T03:36:19;19.90;70.59
72650;SHT31;61467;50.674;4.618;2022-08-19T03:38:49;19.86;70.33
72650;SHT31;61467;50.674;4.618;2022-08-19T03:41:18;19.87;70.20
72650;SHT31;61467;50.674;4.618;2022-08-19T03:43:45;19.94;69.90
72650;SHT31;61467;50.674;4.618;2022-08-19T03:46:15;19.87;70.25
72650;SHT31;61467;50.674;4.618;2022-08-19T03:48:44;19.87;70.33
72650;SHT31;61467;50.674;4.618;2022-08-19T03:51:16;19.96;70.02
72650;SHT31;61467;50.674;4.618;2022-08-19T03:53:43;20.01;70.12
72650;SHT31;61467;50.674;4.618;2022-08-19T03:56:11;20.00;70.01
72650;SHT31;61467;50.674;4.618;2022-08-19T03:58:39;20.04;69.82
72650;SHT31;61467;50.674;4.618;2022-08-19T04:01:07;20.06;69.53
72650;SHT31;61467;50.674;4.618;2022-08-19T04:03:33;20.03;69.82
72650;SHT31;61467;50.674;4.618;2022-08-19T04:06:09;19.98;69.68
72650;SHT31;61467;50.674;4.618;2022-08-19T04:08:36;20.10;69.47
72650;SHT31;61467;50.674;4.618;2022-08-19T04:11:06;20.09;69.58
72650;SHT31;61467;50.674;4.618;2022-08-19T04:13:35;20.06;69.37
72650;SHT31;61467;50.674;4.618;2022-08-19T04:16:04;20.06;69.26
72650;SHT31;61467;50.674;4.618;2022-08-19T04:18:31;20.03;69.33
72650;SHT31;61467;50.674;4.618;2022-08-19T04:20:58;19.91;69.75
72650;SHT31;61467;50.674;4.618;2022-08-19T04:23:26;19.87;69.91
72650;SHT31;61467;50.674;4.618;2022-08-19T04:25:54;19.73;70.36
72650;SHT31;61467;50.674;4.618;2022-08-19T04:28:22;19.67;70.51
72650;SHT31;61467;50.674;4.618;2022-08-19T04:30:53;19.41;71.47
72650;SHT31;61467;50.674;4.618;2022-08-19T04:33:22;19.53;71.27
72650;SHT31;61467;50.674;4.618;2022-08-19T04:35:50;19.55;71.14
72650;SHT31;61467;50.674;4.618;2022-08-19T04:38:19;19.26;72.21
72650;SHT31;61467;50.674;4.618;2022-08-19T04:40:49;19.45;71.68
72650;SHT31;61467;50.674;4.618;2022-08-19T04:43:35;19.60;71.43
72650;SHT31;61467;50.674;4.618;2022-08-19T04:46:06;19.69;71.29
72650;SHT31;61467;50.674;4.618;2022-08-19T04:48:33;19.49;71.75
72650;SHT31;61467;50.674;4.618;2022-08-19T04:51:00;19.46;72.32
72650;SHT31;61467;50.674;4.618;2022-08-19T04:53:28;18.92;73.45
72650;SHT31;61467;50.674;4.618;2022-08-19T04:55:55;18.29;76.11
72650;SHT31;61467;50.674;4.618;2022-08-19T04:58:22;18.54;75.40
72650;SHT31;61467;50.674;4.618;2022-08-19T05:00:49;18.12;76.84
72650;SHT31;61467;50.674;4.618;2022-08-19T05:03:18;18.17;76.93
72650;SHT31;61467;50.674;4.618;2022-08-19T05:05:46;18.34;76.35
72650;SHT31;61467;50.674;4.618;2022-08-19T05:08:16;18.50;75.53
72650;SHT31;61467;50.674;4.618;2022-08-19T05:10:45;18.10;77.07
72650;SHT31;61467;50.674;4.618;2022-08-19T05:13:12;17.98;77.79
72650;SHT31;61467;50.674;4.618;2022-08-19T05:15:40;17.89;78.30
72650;SHT31;61467;50.674;4.618;2022-08-19T05:18:07;17.75;78.53
72650;SHT31;61467;50.674;4.618;2022-08-19T05:20:52;17.75;78.53
72650;SHT31;61467;50.674;4.618;2022-08-19T05:23:36;17.64;78.68
72650;SHT31;61467;50.674;4.618;2022-08-19T05:26:03;17.65;79.05
72650;SHT31;61467;50.674;4.618;2022-08-19T05:28:30;17.77;78.55
72650;SHT31;61467;50.674;4.618;2022-08-19T05:30:57;17.92;77.75
72650;SHT31;61467;50.674;4.618;2022-08-19T05:33:24;18.17;76.74
72650;SHT31;61467;50.674;4.618;2022-08-19T05:35:52;18.02;76.97
72650;SHT31;61467;50.674;4.618;2022-08-19T05:38:20;17.91;77.72
72650;SHT31;61467;50.674;4.618;2022-08-19T05:40:46;17.93;77.69
72650;SHT31;61467;50.674;4.618;2022-08-19T05:43:15;17.86;77.98
72650;SHT31;61467;50.674;4.618;2022-08-19T05:45:42;18.10;77.22
72650;SHT31;61467;50.674;4.618;2022-08-19T05:48:10;17.99;77.54
72650;SHT31;61467;50.674;4.618;2022-08-19T05:50:38;18.17;76.95
72650;SHT31;61467;50.674;4.618;2022-08-19T05:53:06;18.06;77.47
72650;SHT31;61467;50.674;4.618;2022-08-19T05:55:34;18.08;77.41
72650;SHT31;61467;50.674;4.618;2022-08-19T05:58:02;18.28;77.01
72650;SHT31;61467;50.674;4.618;2022-08-19T06:00:29;18.68;75.03
72650;SHT31;61467;50.674;4.618;2022-08-19T06:02:56;18.65;75.25
72650;SHT31;61467;50.674;4.618;2022-08-19T06:05:25;18.61;75.88
72650;SHT31;61467;50.674;4.618;2022-08-19T06:07:51;18.84;74.80
72650;SHT31;61467;50.674;4.618;2022-08-19T06:10:20;18.84;74.76
72650;SHT31;61467;50.674;4.618;2022-08-19T06:12:47;19.00;74.94
72650;SHT31;61467;50.674;4.618;2022-08-19T06:15:14;18.97;74.41
72650;SHT31;61467;50.674;4.618;2022-08-19T06:17:41;19.18;73.69
72650;SHT31;61467;50.674;4.618;2022-08-19T06:20:13;19.14;74.12
72650;SHT31;61467;50.674;4.618;2022-08-19T06:22:42;19.18;73.82
72650;SHT31;61467;50.674;4.618;2022-08-19T06:25:10;19.41;73.54
72650;SHT31;61467;50.674;4.618;2022-08-19T06:27:38;19.14;74.61
72650;SHT31;61467;50.674;4.618;2022-08-19T06:30:06;19.23;74.27
72650;SHT31;61467;50.674;4.618;2022-08-19T06:32:33;19.26;74.29
72650;SHT31;61467;50.674;4.618;2022-08-19T06:35:00;19.60;73.14
72650;SHT31;61467;50.674;4.618;2022-08-19T06:37:26;19.45;73.34
72650;SHT31;61467;50.674;4.618;2022-08-19T06:39:53;19.74;72.63
72650;SHT31;61467;50.674;4.618;2022-08-19T06:42:20;19.79;72.49
72650;SHT31;61467;50.674;4.618;2022-08-19T06:44:48;19.91;71.82
72650;SHT31;61467;50.674;4.618;2022-08-19T06:47:17;19.76;72.70
72650;SHT31;61467;50.674;4.618;2022-08-19T06:49:44;19.80;72.71
72650;SHT31;61467;50.674;4.618;2022-08-19T06:52:11;19.97;72.15
72650;SHT31;61467;50.674;4.618;2022-08-19T06:54:38;19.91;72.42
72650;SHT31;61467;50.674;4.618;2022-08-19T06:57:06;20.14;71.87
72650;SHT31;61467;50.674;4.618;2022-08-19T06:59:34;20.24;71.18
72650;SHT31;61467;50.674;4.618;2022-08-19T07:02:05;20.13;71.68
72650;SHT31;61467;50.674;4.618;2022-08-19T07:04:33;20.59;70.43
72650;SHT31;61467;50.674;4.618;2022-08-19T07:07:03;20.67;69.84
72650;SHT31;61467;50.674;4.618;2022-08-19T07:09:31;20.55;70.43
72650;SHT31;61467;50.674;4.618;2022-08-19T07:11:58;20.67;70.01
72650;SHT31;61467;50.674;4.618;2022-08-19T07:14:26;20.89;69.83
72650;SHT31;61467;50.674;4.618;2022-08-19T07:16:55;21.09;69.30
72650;SHT31;61467;50.674;4.618;2022-08-19T07:19:25;21.26;68.65
72650;SHT31;61467;50.674;4.618;2022-08-19T07:21:53;21.22;68.96
72650;SHT31;61467;50.674;4.618;2022-08-19T07:24:22;21.14;68.93
72650;SHT31;61467;50.674;4.618;2022-08-19T07:26:52;21.29;68.87
72650;SHT31;61467;50.674;4.618;2022-08-19T07:29:20;21.04;69.73
72650;SHT31;61467;50.674;4.618;2022-08-19T07:31:49;21.06;69.78
72650;SHT31;61467;50.674;4.618;2022-08-19T07:34:16;21.18;69.42
72650;SHT31;61467;50.674;4.618;2022-08-19T07:36:45;21.43;68.92
72650;SHT31;61467;50.674;4.618;2022-08-19T07:39:15;21.40;68.96
72650;SHT31;61467;50.674;4.618;2022-08-19T07:41:42;21.06;69.68
72650;SHT31;61467;50.674;4.618;2022-08-19T07:44:10;21.09;69.67
72650;SHT31;61467;50.674;4.618;2022-08-19T07:46:40;20.92;70.33
72650;SHT31;61467;50.674;4.618;2022-08-19T07:49:09;21.26;69.75
72650;SHT31;61467;50.674;4.618;2022-08-19T07:51:45;20.98;70.31
72650;SHT31;61467;50.674;4.618;2022-08-19T07:54:12;20.98;70.14
72650;SHT31;61467;50.674;4.618;2022-08-19T07:56:39;21.02;70.45
72650;SHT31;61467;50.674;4.618;2022-08-19T07:59:06;20.72;71.68
72650;SHT31;61467;50.674;4.618;2022-08-19T08:01:33;21.36;69.42
72650;SHT31;61467;50.674;4.618;2022-08-19T08:03:59;21.13;70.15
72650;SHT31;61467;50.674;4.618;2022-08-19T08:06:45;21.37;69.63
72650;SHT31;61467;50.674;4.618;2022-08-19T08:09:32;21.70;68.85
72650;SHT31;61467;50.674;4.618;2022-08-19T08:12:01;21.64;68.62
72650;SHT31;61467;50.674;4.618;2022-08-19T08:14:31;21.62;68.68
72650;SHT31;61467;50.674;4.618;2022-08-19T08:16:59;21.82;67.82
72650;SHT31;61467;50.674;4.618;2022-08-19T08:19:26;21.85;68.12
72650;SHT31;61467;50.674;4.618;2022-08-19T08:21:56;22.28;66.56
72650;SHT31;61467;50.674;4.618;2022-08-19T08:24:24;22.13;66.67
72650;SHT31;61467;50.674;4.618;2022-08-19T08:26:51;22.33;66.46
72650;SHT31;61467;50.674;4.618;2022-08-19T08:29:17;22.35;66.19
72650;SHT31;61467;50.674;4.618;2022-08-19T08:31:45;22.43;66.18
72650;SHT31;61467;50.674;4.618;2022-08-19T08:34:13;22.81;65.37
72650;SHT31;61467;50.674;4.618;2022-08-19T08:36:44;22.80;65.11
72650;SHT31;61467;50.674;4.618;2022-08-19T08:39:14;22.79;65.40
72650;SHT31;61467;50.674;4.618;2022-08-19T08:41:48;22.83;65.06
72650;SHT31;61467;50.674;4.618;2022-08-19T08:44:21;22.67;65.77
72650;SHT31;61467;50.674;4.618;2022-08-19T08:46:50;22.67;65.47
72650;SHT31;61467;50.674;4.618;2022-08-19T08:49:25;23.10;64.16
72650;SHT31;61467;50.674;4.618;2022-08-19T08:51:57;23.27;63.75
72650;SHT31;61467;50.674;4.618;2022-08-19T08:54:33;22.86;64.87
72650;SHT31;61467;50.674;4.618;2022-08-19T08:57:00;23.00;64.34
72650;SHT31;61467;50.674;4.618;2022-08-19T08:59:31;22.93;64.74
72650;SHT31;61467;50.674;4.618;2022-08-19T09:01:59;22.84;64.69
72650;SHT31;61467;50.674;4.618;2022-08-19T09:04:27;22.80;65.28
72650;SHT31;61467;50.674;4.618;2022-08-19T09:07:09;22.26;67.23
72650;SHT31;61467;50.674;4.618;2022-08-19T09:09:43;22.53;67.06
72650;SHT31;61467;50.674;4.618;2022-08-19T09:12:16;22.13;68.31
72650;SHT31;61467;50.674;4.618;2022-08-19T09:14:48;22.83;66.29
72650;SHT31;61467;50.674;4.618;2022-08-19T09:17:17;22.69;66.87
72650;SHT31;61467;50.674;4.618;2022-08-19T09:19:50;22.43;68.19
72650;SHT31;61467;50.674;4.618;2022-08-19T09:22:17;22.57;67.63
72650;SHT31;61467;50.674;4.618;2022-08-19T09:24:47;22.33;68.69
72650;SHT31;61467;50.674;4.618;2022-08-19T09:27:14;22.64;68.03
72650;SHT31;61467;50.674;4.618;2022-08-19T09:29:41;22.33;68.89
72650;SHT31;61467;50.674;4.618;2022-08-19T09:32:08;22.53;68.35
72650;SHT31;61467;50.674;4.618;2022-08-19T09:34:35;22.91;66.97
72650;SHT31;61467;50.674;4.618;2022-08-19T09:37:02;22.81;67.47
72650;SHT31;61467;50.674;4.618;2022-08-19T09:39:28;22.87;67.41
72650;SHT31;61467;50.674;4.618;2022-08-19T09:41:57;22.79;67.81
72650;SHT31;61467;50.674;4.618;2022-08-19T09:44:24;22.64;68.28
72650;SHT31;61467;50.674;4.618;2022-08-19T09:46:51;22.67;68.26
72650;SHT31;61467;50.674;4.618;2022-08-19T09:49:18;22.61;68.29
72650;SHT31;61467;50.674;4.618;2022-08-19T09:51:49;22.60;68.10
72650;SHT31;61467;50.674;4.618;2022-08-19T09:54:16;22.66;68.23
72650;SHT31;61467;50.674;4.618;2022-08-19T09:56:43;22.50;68.64
72650;SHT31;61467;50.674;4.618;2022-08-19T09:59:12;22.50;69.04
72650;SHT31;61467;50.674;4.618;2022-08-19T10:01:39;22.53;69.45
72650;SHT31;61467;50.674;4.618;2022-08-19T10:04:06;22.60;68.84
72650;SHT31;61467;50.674;4.618;2022-08-19T10:06:35;22.48;69.34
72650;SHT31;61467;50.674;4.618;2022-08-19T10:09:04;22.49;69.12
72650;SHT31;61467;50.674;4.618;2022-08-19T10:11:32;22.43;69.45
72650;SHT31;61467;50.674;4.618;2022-08-19T10:13:59;22.22;70.12
72650;SHT31;61467;50.674;4.618;2022-08-19T10:16:27;22.50;69.16
72650;SHT31;61467;50.674;4.618;2022-08-19T10:18:54;22.45;69.84
72650;SHT31;61467;50.674;4.618;2022-08-19T10:21:23;22.43;69.73
72650;SHT31;61467;50.674;4.618;2022-08-19T10:23:52;22.25;70.73
72650;SHT31;61467;50.674;4.618;2022-08-19T10:26:21;22.40;69.71
72650;SHT31;61467;50.674;4.618;2022-08-19T10:28:48;22.55;69.42
72650;SHT31;61467;50.674;4.618;2022-08-19T10:31:20;22.74;68.78
72650;SHT31;61467;50.674;4.618;2022-08-19T10:33:50;22.63;69.49
72650;SHT31;61467;50.674;4.618;2022-08-19T10:36:24;22.74;69.20
72650;SHT31;61467;50.674;4.618;2022-08-19T10:38:53;22.46;70.63
72650;SHT31;61467;50.674;4.618;2022-08-19T10:41:24;22.86;69.01
72650;SHT31;61467;50.674;4.618;2022-08-19T10:43:52;22.84;69.43
72650;SHT31;61467;50.674;4.618;2022-08-19T10:46:21;22.97;68.88
72650;SHT31;61467;50.674;4.618;2022-08-19T10:48:49;22.77;69.51
72650;SHT31;61467;50.674;4.618;2022-08-19T10:51:16;23.06;68.59
72650;SHT31;61467;50.674;4.618;2022-08-19T10:54:01;22.86;69.00
72650;SHT31;61467;50.674;4.618;2022-08-19T10:56:28;23.10;68.33
72650;SHT31;61467;50.674;4.618;2022-08-19T10:59:13;23.10;68.55
72650;SHT31;61467;50.674;4.618;2022-08-19T11:01:41;23.04;68.48
72650;SHT31;61467;50.674;4.618;2022-08-19T11:04:09;22.81;69.09
72650;SHT31;61467;50.674;4.618;2022-08-19T11:06:39;23.06;68.50
72650;SHT31;61467;50.674;4.618;2022-08-19T11:09:07;23.31;67.40
72650;SHT31;61467;50.674;4.618;2022-08-19T11:11:35;23.25;67.71
72650;SHT31;61467;50.674;4.618;2022-08-19T11:14:05;23.01;68.66
72650;SHT31;61467;50.674;4.618;2022-08-19T11:16:32;22.89;68.63
72650;SHT31;61467;50.674;4.618;2022-08-19T11:18:59;22.77;69.15
72650;SHT31;61467;50.674;4.618;2022-08-19T11:21:29;22.97;68.54
72650;SHT31;61467;50.674;4.618;2022-08-19T11:23:59;23.12;68.20
72650;SHT31;61467;50.674;4.618;2022-08-19T11:26:28;22.87;69.34
72650;SHT31;61467;50.674;4.618;2022-08-19T11:28:56;22.97;68.57
72650;SHT31;61467;50.674;4.618;2022-08-19T11:31:26;23.18;68.19
72650;SHT31;61467;50.674;4.618;2022-08-19T11:33:55;22.93;68.55
72650;SHT31;61467;50.674;4.618;2022-08-19T11:36:22;22.80;68.96
72650;SHT31;61467;50.674;4.618;2022-08-19T11:38:50;22.84;69.32
72650;SHT31;61467;50.674;4.618;2022-08-19T11:41:19;22.84;69.47
72650;SHT31;61467;50.674;4.618;2022-08-19T11:43:46;22.80;69.40
72650;SHT31;61467;50.674;4.618;2022-08-19T11:46:14;22.63;70.02
72650;SHT31;61467;50.674;4.618;2022-08-19T11:48:42;22.77;70.01
72650;SHT31;61467;50.674;4.618;2022-08-19T11:51:12;23.03;68.59
72650;SHT31;61467;50.674;4.618;2022-08-19T11:53:39;23.00;69.21
72650;SHT31;61467;50.674;4.618;2022-08-19T11:56:08;23.32;67.99
72650;SHT31;61467;50.674;4.618;2022-08-19T11:58:35;23.39;67.56
72650;SHT31;61467;50.674;4.618;2022-08-19T12:01:05;23.35;67.50
72650;SHT31;61467;50.674;4.618;2022-08-19T12:03:32;23.18;68.28
72650;SHT31;61467;50.674;4.618;2022-08-19T12:06:03;23.32;67.61
72650;SHT31;61467;50.674;4.618;2022-08-19T12:08:30;23.63;66.89
72650;SHT31;61467;50.674;4.618;2022-08-19T12:10:58;23.41;66.79
72650;SHT31;61467;50.674;4.618;2022-08-19T12:13:29;23.59;66.20
72650;SHT31;61467;50.674;4.618;2022-08-19T12:15:56;23.44;66.75
72650;SHT31;61467;50.674;4.618;2022-08-19T12:18:23;23.61;66.30
72650;SHT31;61467;50.674;4.618;2022-08-19T12:20:52;23.75;66.14
72650;SHT31;61467;50.674;4.618;2022-08-19T12:23:20;23.52;66.63
72650;SHT31;61467;50.674;4.618;2022-08-19T12:25:48;23.76;65.85
72650;SHT31;61467;50.674;4.618;2022-08-19T12:28:17;23.69;66.41
72650;SHT31;61467;50.674;4.618;2022-08-19T12:30:45;23.82;66.03
72650;SHT31;61467;50.674;4.618;2022-08-19T12:33:12;23.99;65.63
72650;SHT31;61467;50.674;4.618;2022-08-19T12:35:40;23.99;64.86
72650;SHT31;61467;50.674;4.618;2022-08-19T12:38:07;23.90;65.16
72650;SHT31;61467;50.674;4.618;2022-08-19T12:40:34;23.98;65.13
72650;SHT31;61467;50.674;4.618;2022-08-19T12:43:01;24.03;65.08
72650;SHT31;61467;50.674;4.618;2022-08-19T12:45:27;24.14;64.79
72650;SHT31;61467;50.674;4.618;2022-08-19T12:47:56;24.20;64.45
72650;SHT31;61467;50.674;4.618;2022-08-19T12:50:23;24.14;64.48
72650;SHT31;61467;50.674;4.618;2022-08-19T12:52:49;24.12;64.14
72650;SHT31;61467;50.674;4.618;2022-08-19T12:55:18;24.34;64.63
72650;SHT31;61467;50.674;4.618;2022-08-19T12:57:45;24.82;63.27
72650;SHT31;61467;50.674;4.618;2022-08-19T13:00:16;25.18;61.55
72650;SHT31;61467;50.674;4.618;2022-08-19T13:02:45;25.59;60.73
72650;SHT31;61467;50.674;4.618;2022-08-19T13:05:15;25.78;60.12
72650;SHT31;61467;50.674;4.618;2022-08-19T13:07:45;25.65;60.05
72650;SHT31;61467;50.674;4.618;2022-08-19T13:10:14;25.81;59.30
72650;SHT31;61467;50.674;4.618;2022-08-19T13:12:43;25.91;58.85
72650;SHT31;61467;50.674;4.618;2022-08-19T13:15:10;25.78;59.58
72650;SHT31;61467;50.674;4.618;2022-08-19T13:17:39;25.83;58.37
72650;SHT31;61467;50.674;4.618;2022-08-19T13:20:07;25.96;58.54
72650;SHT31;61467;50.674;4.618;2022-08-19T13:22:36;25.70;58.87
72650;SHT31;61467;50.674;4.618;2022-08-19T13:25:05;25.65;59.04
72650;SHT31;61467;50.674;4.618;2022-08-19T13:27:33;25.78;58.73
72650;SHT31;61467;50.674;4.618;2022-08-19T13:30:00;25.70;58.70
72650;SHT31;61467;50.674;4.618;2022-08-19T13:32:44;25.98;58.18
72650;SHT31;61467;50.674;4.618;2022-08-19T13:35:28;26.08;58.55
72650;SHT31;61467;50.674;4.618;2022-08-19T13:37:57;25.98;58.40
72650;SHT31;61467;50.674;4.618;2022-08-19T13:40:24;25.78;58.63
72650;SHT31;61467;50.674;4.618;2022-08-19T13:42:53;25.66;59.02
72650;SHT31;61467;50.674;4.618;2022-08-19T13:45:23;25.59;59.40
72650;SHT31;61467;50.674;4.618;2022-08-19T13:47:52;25.83;58.65
72650;SHT31;61467;50.674;4.618;2022-08-19T13:50:22;25.74;58.77
72650;SHT31;61467;50.674;4.618;2022-08-19T13:52:53;25.67;58.58
72650;SHT31;61467;50.674;4.618;2022-08-19T13:55:21;25.54;58.86
72650;SHT31;61467;50.674;4.618;2022-08-19T13:57:50;25.84;58.43
72650;SHT31;61467;50.674;4.618;2022-08-19T14:00:17;26.00;57.96
72650;SHT31;61467;50.674;4.618;2022-08-19T14:02:45;26.25;57.12
72650;SHT31;61467;50.674;4.618;2022-08-19T14:05:15;26.04;57.73
72650;SHT31;61467;50.674;4.618;2022-08-19T14:07:42;25.83;58.40
72650;SHT31;61467;50.674;4.618;2022-08-19T14:10:10;25.94;58.18
72650;SHT31;61467;50.674;4.618;2022-08-19T14:12:39;25.88;58.35
72650;SHT31;61467;50.674;4.618;2022-08-19T14:15:08;26.02;57.92
72650;SHT31;61467;50.674;4.618;2022-08-19T14:17:37;25.88;57.85
72650;SHT31;61467;50.674;4.618;2022-08-19T14:20:06;25.97;57.87
72650;SHT31;61467;50.674;4.618;2022-08-19T14:22:34;25.93;57.79
72650;SHT31;61467;50.674;4.618;2022-08-19T14:25:02;25.71;58.14
72650;SHT31;61467;50.674;4.618;2022-08-19T14:27:30;25.73;57.98
72650;SHT31;61467;50.674;4.618;2022-08-19T14:29:58;25.45;59.01
72650;SHT31;61467;50.674;4.618;2022-08-19T14:32:24;25.30;59.63
72650;SHT31;61467;50.674;4.618;2022-08-19T14:34:52;25.43;59.74
72650;SHT31;61467;50.674;4.618;2022-08-19T14:37:19;24.99;61.49
72650;SHT31;61467;50.674;4.618;2022-08-19T14:39:46;24.48;63.62
72650;SHT31;61467;50.674;4.618;2022-08-19T14:42:13;24.47;63.92
72650;SHT31;61467;50.674;4.618;2022-08-19T14:44:40;24.13;65.50
72650;SHT31;61467;50.674;4.618;2022-08-19T14:47:08;23.99;65.89
72650;SHT31;61467;50.674;4.618;2022-08-19T14:49:36;24.14;65.46
72650;SHT31;61467;50.674;4.618;2022-08-19T14:52:04;23.70;69.06
72650;SHT31;61467;50.674;4.618;2022-08-19T14:54:31;23.82;70.32
72650;SHT31;61467;50.674;4.618;2022-08-19T14:56:58;23.41;72.59
72650;SHT31;61467;50.674;4.618;2022-08-19T14:59:25;23.42;71.66
72650;SHT31;61467;50.674;4.618;2022-08-19T15:01:51;23.75;72.41
72650;SHT31;61467;50.674;4.618;2022-08-19T15:04:20;23.62;72.48
72650;SHT31;61467;50.674;4.618;2022-08-19T15:06:46;23.49;72.57
72650;SHT31;61467;50.674;4.618;2022-08-19T15:09:13;23.58;72.86
72650;SHT31;61467;50.674;4.618;2022-08-19T15:11:40;23.78;72.12
72650;SHT31;61467;50.674;4.618;2022-08-19T15:14:07;23.96;71.92
72650;SHT31;61467;50.674;4.618;2022-08-19T15:16:35;23.90;72.25
72650;SHT31;61467;50.674;4.618;2022-08-19T15:19:03;24.05;71.50
72650;SHT31;61467;50.674;4.618;2022-08-19T15:21:31;24.03;72.48
72650;SHT31;61467;50.674;4.618;2022-08-19T15:23:59;24.27;71.95
72650;SHT31;61467;50.674;4.618;2022-08-19T15:26:27;24.65;70.24
72650;SHT31;61467;50.674;4.618;2022-08-19T15:28:57;24.56;69.11
72650;SHT31;61467;50.674;4.618;2022-08-19T15:31:25;24.75;68.51
72650;SHT31;61467;50.674;4.618;2022-08-19T15:33:52;24.96;68.65
72650;SHT31;61467;50.674;4.618;2022-08-19T15:36:22;25.18;68.00
72650;SHT31;61467;50.674;4.618;2022-08-19T15:38:51;25.09;64.72